Terminal Aerodrome Forecast
Issued by NWS Honolulu, HI

Home | Current Version | Previous Version | Text Only | Print | Product List | Glossary On
Versions: 1 2 3 4 5 6 7 8 9 10 11 12 13 14 15 16 17 18 19 20 21 22 23 24 25 26
000
FTPA31 PHFO 242340
TAFHNL
TAF
PHNL 242340Z 2500/2606 08010G16KT P6SM FEW030 SCT050
     FM250600 05007KT P6SM FEW030 SCT050
     FM252100 11010KT P6SM FEW045 SCT070=

USA.gov is the U.S. government's official web portal to all federal, state and local government web resources and services.